Portada
METAR-TAF:

METAR-TAF

Aeropuertos :

Chlef, Argelia

latitud: 36-13N, longitud: 001-20E, altitud: 143 m

Observación

El informe se hizo hace 46 minutos, a las 21:00 UTC
Viento 3 kt del oeste
Temperatura 15°C
Humedad 77%
Presión 1012 hPa
Visibilidad 10 km o más
Cielo nuboso a una altura de 2600 ft

METAR: DAOI 202100Z 28003KT 9999 BKN026 15/11 Q1012

Hora: 22:46 (21:46 UTC)

Pronóstico

El informe se hizo hace 4 horas y 46 minutos, a las 17:00 UTC
Pronóstico válido del 20 a las 18 UTC al 21 a las 18 UTC
Viento 12 kt del suroeste
Visibilidad 10 km o más
Escasas nubes a una altura de 2600 ft
Nubes dispersas a una altura de 3000 ft
Evolucionando progresivamente
del 21 a las 15 UTC al 21 a las 18 UTC
Viento 2 kt con dirección variable

TAF: DAOI 201700Z 2018/2118 22012KT 9999 FEW026 SCT030 BECMG 2115/2118 VRB02KT

Observaciones y pronósticos meteorológicos de más de 4000 aeropuertos (mensajes METAR y TAF).

Los puntos amarillos y rojos representan las estaciones disponibles.

Ponga el ratón en el punto deseado para ver el nombre de la estación.

Haga clic para ver las observaciones y los pronósticos meteorológicos.

Para cambiar el mapa : haga clic en los botones verdes con una cruz de color negro para hacer un zoom, en el botón verde con un guión para alejar o en las flechas verdes para mapas adyacentes.


METAR-TAF: